Time;durP1;ratioP1;P1;durP2;ratioP2;P2;SDS_P1;SDS_P2;PMS_P1;PMS_P2;Temp;Humidity;BMP_temperature;BMP_pressure;BME280_temperature;BME280_humidity;BME280_pressure;Samples;Min_cycle;Max_cycle;Signal;HPM_P1;HPM_P2
2021/05/06 00:09:59;;;;;;;8.08;1.60;;;;;;;6.74;57.78;99694.78;1623359;83;21212;-73
2021/05/06 00:29:54;;;;;;;3.85;1.20;;;;;;;6.57;57.88;99698.88;1697718;83;20998;-73
2021/05/06 00:33:20;;;;;;;7.97;1.15;;;;;;;6.40;58.06;99711.09;1707079;82;21242;-73
2021/05/06 00:35:48;;;;;;;9.78;1.52;;;;;;;6.37;58.07;99718.41;1703732;81;21211;-73
2021/05/06 00:38:19;;;;;;;3.50;1.20;;;;;;;6.34;58.08;99710.74;1706635;82;21093;-73
2021/05/06 00:59:50;;;;;;;4.53;1.37;;;;;;;6.18;58.21;99735.80;1727707;81;21222;-74
2021/05/06 01:12:42;;;;;;;;;;;;;;;6.18;58.36;99738.79;1719162;81;21007;-73
2021/05/06 01:15:08;;;;;;;5.45;1.55;;;;;;;6.19;58.53;99733.64;1687361;83;20252;-73
2021/05/06 01:17:35;;;;;;;7.22;1.27;;;;;;;6.21;58.45;99736.19;1722624;82;21150;-73
2021/05/06 01:20:06;;;;;;;2.92;1.25;;;;;;;6.21;58.44;99733.63;1710102;82;21088;-73
2021/05/06 01:22:32;;;;;;;9.45;1.50;;;;;;;6.20;58.49;99723.79;1723064;82;20990;-73
2021/05/06 01:24:59;;;;;;;;;;;;;;;6.21;58.49;99734.91;1722416;81;20988;-73
2021/05/06 01:27:42;;;;;;;6.58;1.67;;;;;;;6.20;58.60;99728.07;1709352;82;20460;-73
2021/05/06 01:32:44;;;;;;;6.15;1.67;;;;;;;6.16;58.53;99723.41;1713756;83;21238;-73
2021/05/06 01:35:14;;;;;;;7.17;1.72;;;;;;;6.14;58.49;99740.98;1723228;82;20967;-73
2021/05/06 01:59:32;;;;;;;8.38;1.95;;;;;;;5.82;58.69;99750.28;1707741;81;21222;-73
2021/05/06 02:01:54;;;;;;;7.47;1.70;;;;;;;5.77;58.73;99747.77;1702520;84;20983;-73
2021/05/06 02:04:20;;;;;;;6.05;1.65;;;;;;;5.74;58.70;99750.36;1702603;83;21885;-73
2021/05/06 02:06:47;;;;;;;8.65;1.40;;;;;;;5.71;58.79;99746.58;1702662;83;21001;-73
2021/05/06 02:09:14;;;;;;;11.48;1.98;;;;;;;5.68;58.74;99755.59;1708021;82;21014;-73
2021/05/06 02:11:40;;;;;;;7.25;1.52;;;;;;;5.68;58.84;99752.17;1710171;82;21001;-73
2021/05/06 02:14:08;;;;;;;5.95;1.72;;;;;;;5.64;58.85;99753.48;1722017;81;20980;-73
2021/05/06 02:16:38;;;;;;;8.48;1.65;;;;;;;5.61;58.87;99752.66;1702927;81;21052;-73
2021/05/06 02:19:06;;;;;;;7.58;1.45;;;;;;;5.58;58.80;99747.56;1712560;81;21194;-73
2021/05/06 02:21:33;;;;;;;8.68;1.52;;;;;;;5.57;58.86;99754.84;1713536;82;20959;-73
2021/05/06 02:23:59;;;;;;;7.17;1.75;;;;;;;5.54;58.79;99753.16;1699947;82;20998;-73
2021/05/06 02:26:26;;;;;;;4.72;1.62;;;;;;;5.51;58.78;99748.48;1723290;81;20973;-73
2021/05/06 02:28:53;;;;;;;10.58;2.42;;;;;;;5.48;59.06;99748.08;1700994;83;21454;-73
2021/05/06 02:31:19;;;;;;;;;;;;;;;5.48;59.06;99748.08;1705918;83;20983;-73
2021/05/06 02:33:45;;;;;;;6.65;1.75;;;;;;;5.48;58.98;99753.64;1702979;82;20243;-73
2021/05/06 02:36:15;;;;;;;8.83;1.90;;;;;;;5.44;58.97;99759.66;1700482;82;21430;-73
2021/05/06 02:38:41;;;;;;;9.88;1.70;;;;;;;5.43;58.96;99761.80;1711612;81;21162;-73
2021/05/06 02:41:08;;;;;;;7.22;1.50;;;;;;;5.42;58.94;99757.54;1760087;80;20965;-73
2021/05/06 02:43:35;;;;;;;6.03;1.45;;;;;;;5.39;58.95;99761.41;1718469;81;21079;-73
2021/05/06 02:46:01;;;;;;;2.65;1.22;;;;;;;5.37;59.00;99761.86;1699614;84;21168;-73
2021/05/06 02:48:27;;;;;;;4.60;1.37;;;;;;;5.36;58.97;99755.03;1704493;83;21090;-73
2021/05/06 02:51:01;;;;;;;10.40;2.00;;;;;;;5.36;59.05;99762.72;1691882;83;21738;-73
2021/05/06 02:53:28;;;;;;;6.25;1.40;;;;;;;5.33;58.95;99770.00;1698582;83;21211;-73
2021/05/06 02:56:03;;;;;;;5.70;1.65;;;;;;;5.31;59.04;99770.45;1703325;83;21240;-73
2021/05/06 03:03:45;;;;;;;7.03;1.50;;;;;;;5.29;59.08;99774.73;1716949;81;21736;-73
2021/05/06 03:06:07;;;;;;;6.17;1.50;;;;;;;5.27;59.08;99783.72;1706214;81;21709;-73
2021/05/06 03:08:37;;;;;;;7.28;1.15;;;;;;;5.25;59.12;99782.03;1719836;81;22429;-73
2021/05/06 03:24:34;;;;;;;9.70;1.35;;;;;;;5.17;59.31;99789.80;1693600;82;21695;-73
2021/05/06 03:27:02;;;;;;;6.92;1.65;;;;;;;5.17;59.28;99796.21;1687421;82;21252;-73
2021/05/06 03:29:39;;;;;;;8.40;1.42;;;;;;;5.16;59.31;99798.35;1692955;82;21527;-73
2021/05/06 03:32:08;;;;;;;9.18;1.55;;;;;;;5.17;59.34;99801.77;1710759;82;21536;-73
2021/05/06 03:43:15;;;;;;;7.62;1.62;;;;;;;5.15;59.47;99807.34;1762624;80;21468;-73
2021/05/06 03:46:05;;;;;;;6.53;2.42;;;;;;;5.16;59.49;99809.89;1763192;80;21674;-73
2021/05/06 04:13:30;;;;;;;7.45;1.77;;;;;;;6.29;59.78;99836.60;1757908;80;21615;-73
2021/05/06 04:18:25;;;;;;;8.38;1.77;;;;;;;6.45;59.73;99839.84;1749778;80;21468;-74
2021/05/06 04:26:33;;;;;;;8.60;1.70;;;;;;;6.49;59.77;99839.38;1711165;82;21452;-74
2021/05/06 04:37:01;;;;;;;7.08;1.72;;;;;;;6.46;59.83;99844.55;1693653;82;21446;-74
2021/05/06 04:39:43;;;;;;;10.10;2.45;;;;;;;6.45;59.94;99847.98;1702668;82;21132;-74
2021/05/06 04:42:19;;;;;;;8.00;1.65;;;;;;;6.48;59.94;99853.94;1701194;82;21031;-74
2021/05/06 04:55:33;;;;;;;6.90;1.52;;;;;;;6.50;60.10;99863.76;1722010;82;21098;-74
2021/05/06 04:58:12;;;;;;;5.80;1.65;;;;;;;6.55;59.98;99864.99;1765600;80;21438;-73
2021/05/06 05:05:56;;;;;;;5.62;1.70;;;;;;;7.25;60.34;99869.20;1709715;82;21388;-74
2021/05/06 05:08:22;;;;;;;7.22;1.85;;;;;;;7.81;60.30;99859.25;1759333;80;21463;-74
2021/05/06 05:11:06;;;;;;;8.43;2.12;;;;;;;8.30;60.22;99869.54;1765128;80;21119;-74
2021/05/06 05:13:51;;;;;;;6.62;1.65;;;;;;;8.81;60.30;99854.38;1765016;80;21937;-74
2021/05/06 05:19:14;;;;;;;8.03;1.80;;;;;;;9.82;59.96;99857.58;1765191;80;21260;-73
2021/05/06 05:27:13;;;;;;;7.22;1.92;;;;;;;10.88;59.89;99863.30;1756838;80;21119;-73
2021/05/06 05:29:58;;;;;;;4.17;1.65;;;;;;;11.28;59.89;99870.69;1761767;80;21009;-73
2021/05/06 05:32:43;;;;;;;7.30;1.82;;;;;;;11.62;59.67;99866.57;1764557;80;21112;-74
2021/05/06 05:35:37;;;;;;;6.17;1.60;;;;;;;11.96;59.64;99870.69;1765553;80;21128;-73
2021/05/06 05:41:32;;;;;;;6.47;1.87;;;;;;;12.28;59.49;99871.70;1761798;80;21115;-74
2021/05/06 05:44:20;;;;;;;5.45;1.42;;;;;;;12.54;59.15;99876.79;1757086;80;21129;-74
2021/05/06 05:47:26;;;;;;;4.35;1.75;;;;;;;12.84;59.20;99873.54;1757134;80;21112;-74
2021/05/06 05:55:56;;;;;;;5.45;1.50;;;;;;;13.93;58.97;99879.20;1750937;80;20988;-74
2021/05/06 05:58:41;;;;;;;6.25;1.80;;;;;;;14.17;58.63;99884.64;1767857;79;21171;-74
2021/05/06 06:01:28;;;;;;;8.48;2.45;;;;;;;14.57;58.66;99885.53;1766279;79;21154;-75
2021/05/06 06:04:12;;;;;;;5.75;1.82;;;;;;;14.72;58.40;99883.55;1764619;79;21100;-74
2021/05/06 06:06:57;;;;;;;8.08;2.20;;;;;;;14.86;58.49;99890.29;1770503;79;21143;-74
2021/05/06 06:09:43;;;;;;;4.05;1.30;;;;;;;14.77;58.02;99889.85;1749310;79;21429;-74
2021/05/06 06:12:28;;;;;;;6.60;2.27;;;;;;;14.56;57.58;99875.58;1762644;79;21163;-74
2021/05/06 06:15:53;;;;;;;4.58;2.02;;;;;;;14.27;57.34;99884.25;1769120;79;21484;-75
2021/05/06 06:18:13;;;;;;;6.55;1.60;;;;;;;14.05;57.54;99890.80;1759522;80;21134;-74
2021/05/06 06:21:08;;;;;;;5.45;1.90;;;;;;;13.89;56.88;99893.22;1765120;79;21142;-74
2021/05/06 06:23:48;;;;;;;4.60;1.77;;;;;;;13.57;57.09;99885.42;1769569;79;21753;-74
2021/05/06 06:26:33;;;;;;;5.90;1.82;;;;;;;13.41;56.91;99885.21;1768973;79;21131;-74
2021/05/06 06:29:19;;;;;;;4.08;1.50;;;;;;;13.37;56.87;99888.83;1768675;79;21556;-74
2021/05/06 06:32:09;;;;;;;;;;;;;;;13.57;56.54;99885.42;1769539;79;21111;-75
2021/05/06 06:34:51;;;;;;;5.35;1.65;;;;;;;13.74;55.93;99891.24;1764130;79;20175;-74
2021/05/06 06:37:36;;;;;;;5.55;1.87;;;;;;;13.82;56.22;99882.23;1770793;79;21099;-74
2021/05/06 06:40:21;;;;;;;6.60;1.35;;;;;;;14.00;56.11;99859.84;1764565;80;20992;-74
2021/05/06 06:43:06;;;;;;;12.88;2.98;;;;;;;14.18;55.98;99893.28;1769158;79;20992;-74
2021/05/06 06:45:51;;;;;;;7.28;1.80;;;;;;;13.80;55.40;99897.49;1768767;79;21105;-74
2021/05/06 06:48:36;;;;;;;3.77;1.85;;;;;;;13.32;55.17;99896.41;1766790;79;21012;-74
2021/05/06 06:51:21;;;;;;;4.85;1.62;;;;;;;13.52;55.90;99894.70;1767600;80;21473;-74
2021/05/06 06:54:06;;;;;;;4.58;1.67;;;;;;;13.96;55.53;99901.16;1768246;80;21127;-75
2021/05/06 06:56:51;;;;;;;4.08;1.82;;;;;;;14.21;55.28;99900.50;1764115;79;21127;-75
2021/05/06 06:59:36;;;;;;;3.65;1.70;;;;;;;14.38;55.02;99901.54;1770131;80;21020;-75
2021/05/06 07:02:13;;;;;;;7.17;2.17;;;;;;;14.41;54.76;99899.69;1724786;81;21531;-75
2021/05/06 07:04:39;;;;;;;4.75;1.60;;;;;;;14.35;54.62;99889.52;1768309;80;21107;-75
2021/05/06 07:07:06;;;;;;;4.55;1.20;;;;;;;14.60;55.00;99892.35;1763191;79;21111;-75
2021/05/06 07:09:32;;;;;;;3.83;1.22;;;;;;;14.78;54.91;99889.78;1746636;80;21170;-75
2021/05/06 07:11:59;;;;;;;5.37;1.30;;;;;;;15.12;54.96;99894.28;1770986;79;21123;-75
2021/05/06 07:14:28;;;;;;;5.12;1.50;;;;;;;15.37;54.75;99902.26;1771924;79;21115;-75
2021/05/06 07:16:53;;;;;;;3.42;1.27;;;;;;;15.52;54.83;99892.42;1767809;79;21015;-74
2021/05/06 07:19:19;;;;;;;4.45;1.40;;;;;;;15.45;54.39;99899.69;1769274;79;21111;-75
2021/05/06 07:21:46;;;;;;;4.58;1.52;;;;;;;15.46;54.38;99908.34;1769395;80;21401;-75
2021/05/06 07:24:13;;;;;;;5.80;1.32;;;;;;;15.27;53.79;99904.91;1769009;79;21107;-75
2021/05/06 07:26:39;;;;;;;3.62;1.92;;;;;;;15.08;53.93;99906.20;1765604;79;21210;-75
2021/05/06 07:29:06;;;;;;;7.85;2.83;;;;;;;15.01;53.81;99906.12;1744762;80;21195;-75
2021/05/06 07:31:32;;;;;;;8.70;1.90;;;;;;;15.00;53.56;99904.44;1725486;81;21203;-74
2021/05/06 07:34:18;;;;;;;7.75;1.67;;;;;;;14.99;53.24;99915.77;1709712;82;21576;-74
2021/05/06 07:36:44;;;;;;;4.83;1.42;;;;;;;14.90;53.00;99904.01;1706761;82;21257;-75
2021/05/06 07:39:11;;;;;;;5.40;1.12;;;;;;;14.83;52.72;99907.34;1745380;79;179713;-74
2021/05/06 07:41:38;;;;;;;9.15;1.80;;;;;;;14.67;52.66;99915.89;1708697;82;21199;-74
2021/05/06 07:44:06;;;;;;;8.13;2.17;;;;;;;14.72;52.55;99907.43;1709637;83;21215;-74
2021/05/06 07:46:33;;;;;;;4.15;1.15;;;;;;;14.77;52.30;99922.39;1707671;83;21664;-74
2021/05/06 07:48:59;;;;;;;3.95;1.20;;;;;;;14.83;52.46;99907.80;1711868;82;21200;-74
2021/05/06 07:51:26;;;;;;;3.15;1.30;;;;;;;15.02;52.18;99902.16;1702945;82;21200;-74
2021/05/06 07:53:54;;;;;;;4.42;1.20;;;;;;;15.14;52.12;99899.41;1720814;81;21219;-74
2021/05/06 07:56:21;;;;;;;2.45;1.25;;;;;;;15.18;51.91;99896.60;1731320;81;21269;-74
2021/05/06 07:58:48;;;;;;;5.53;1.80;;;;;;;15.33;51.80;99909.83;1726076;81;21519;-74
2021/05/06 08:01:15;;;;;;;3.47;1.25;;;;;;;15.43;51.45;99901.97;1728596;81;21237;-74
2021/05/06 08:03:41;;;;;;;;;;;;;;;15.40;51.68;99911.23;1720933;81;21422;-74
2021/05/06 08:06:29;;;;;;;4.12;1.20;;;;;;;15.50;50.60;99922.45;1723761;81;20298;-74
2021/05/06 08:08:57;;;;;;;4.50;1.35;;;;;;;15.65;51.34;99901.34;1736173;81;21139;-74
2021/05/06 08:11:42;;;;;;;5.72;1.50;;;;;;;15.70;51.21;99911.09;1731696;81;21076;-73
2021/05/06 08:14:28;;;;;;;4.67;1.60;;;;;;;15.69;50.95;99913.30;1733044;81;21430;-74
2021/05/06 08:16:55;;;;;;;5.30;1.12;;;;;;;15.65;50.91;99898.73;1722273;81;21582;-73
2021/05/06 08:19:22;;;;;;;4.58;1.62;;;;;;;15.67;50.71;99914.30;1733463;81;21095;-74
2021/05/06 08:21:52;;;;;;;5.60;1.42;;;;;;;15.45;50.50;99918.38;1738923;81;21121;-74
2021/05/06 08:24:18;;;;;;;4.62;1.27;;;;;;;15.20;50.38;99909.55;1725423;81;21164;-74
2021/05/06 08:26:45;;;;;;;4.30;1.70;;;;;;;15.09;50.26;99898.78;1719783;81;20982;-74
2021/05/06 08:29:24;;;;;;;3.17;1.20;;;;;;;15.00;50.15;99914.86;1722491;81;21356;-74
2021/05/06 08:31:51;;;;;;;6.60;1.75;;;;;;;15.09;50.24;99916.55;1736885;81;21129;-74
2021/05/06 08:34:17;;;;;;;3.80;1.40;;;;;;;15.13;49.99;99923.77;1706335;81;21127;-74
2021/05/06 08:37:02;;;;;;;5.37;1.55;;;;;;;14.99;49.82;99917.92;1733336;81;21147;-74
2021/05/06 08:39:47;;;;;;;1.85;0.90;;;;;;;14.93;49.90;99906.93;1708282;82;21144;-74
2021/05/06 08:42:34;;;;;;;2.60;1.02;;;;;;;14.93;49.85;99924.70;1722692;81;21401;-74
2021/05/06 08:45:20;;;;;;;4.83;1.55;;;;;;;14.89;49.67;99915.34;1737006;81;20992;-74
2021/05/06 08:48:07;;;;;;;6.93;1.33;;;;;;;15.01;49.45;99919.99;1716063;81;20999;-73
2021/05/06 08:50:54;;;;;;;4.83;1.30;;;;;;;15.35;49.15;99925.78;1727397;81;21143;-74
2021/05/06 08:53:39;;;;;;;6.75;1.40;;;;;;;15.77;49.13;99915.09;1730507;81;21049;-75
2021/05/06 08:56:24;;;;;;;2.33;0.93;;;;;;;16.19;49.32;99929.05;1725375;81;21119;-74
2021/05/06 08:59:09;;;;;;;2.58;1.07;;;;;;;16.86;49.59;99921.69;1723725;81;21103;-74
2021/05/06 09:01:56;;;;;;;6.17;1.10;;;;;;;17.27;49.65;99919.91;1721011;81;21555;-74
2021/05/06 09:04:41;;;;;;;4.58;1.57;;;;;;;17.59;49.71;99918.13;1735457;81;21192;-74
2021/05/06 09:07:30;;;;;;;3.83;1.20;;;;;;;17.61;49.57;99936.34;1723134;81;21210;-74
2021/05/06 09:10:39;;;;;;;4.62;1.20;;;;;;;17.01;49.00;99910.89;1733245;81;21185;-74
2021/05/06 09:13:32;;;;;;;3.08;1.12;;;;;;;16.42;49.18;99917.92;1726692;81;21039;-74
2021/05/06 09:16:17;;;;;;;5.08;1.67;;;;;;;15.72;48.99;99930.10;1734608;81;21127;-73
2021/05/06 09:19:05;;;;;;;4.58;1.27;;;;;;;15.13;48.60;99923.31;1733698;81;21486;-74
2021/05/06 09:21:50;;;;;;;3.85;1.40;;;;;;;14.58;48.51;99930.15;1723876;81;21016;-73
2021/05/06 09:24:35;;;;;;;3.33;1.02;;;;;;;14.10;48.07;99924.80;1734259;81;20969;-73
2021/05/06 09:27:26;;;;;;;2.17;1.10;;;;;;;13.68;47.91;99923.52;1724031;81;20990;-74
2021/05/06 09:30:15;;;;;;;2.95;1.20;;;;;;;13.43;47.73;99932.75;1704190;83;21147;-74
2021/05/06 09:33:06;;;;;;;4.28;1.67;;;;;;;13.27;47.65;99926.89;1736917;81;21424;-74
2021/05/06 09:35:51;;;;;;;4.97;1.60;;;;;;;13.28;47.54;99929.43;1707257;83;21122;-74
2021/05/06 09:38:39;;;;;;;3.08;1.30;;;;;;;13.32;47.44;99938.80;1737705;81;21427;-74
2021/05/06 09:41:30;;;;;;;1.90;0.93;;;;;;;13.33;47.15;99937.05;1734805;81;20963;-74
2021/05/06 09:44:16;;;;;;;2.92;1.02;;;;;;;13.21;46.87;99929.27;1703261;82;21127;-73
2021/05/06 09:46:56;;;;;;;3.55;1.65;;;;;;;13.09;46.89;99921.91;1734473;81;21143;-73
2021/05/06 09:49:20;;;;;;;3.47;1.20;;;;;;;13.13;47.01;99924.33;1726341;81;21142;-74
2021/05/06 09:52:05;;;;;;;7.22;1.22;;;;;;;13.22;46.85;99918.83;1735514;81;21134;-74
2021/05/06 09:54:31;;;;;;;2.05;0.93;;;;;;;13.29;46.71;99924.63;1721280;81;21149;-74
2021/05/06 09:57:03;;;;;;;4.30;1.60;;;;;;;13.40;46.69;99932.86;1727850;81;20970;-74
2021/05/06 09:59:33;;;;;;;2.15;1.20;;;;;;;13.31;46.31;99923.28;1723862;81;21129;-74
2021/05/06 10:02:17;;;;;;;2.60;0.88;;;;;;;13.24;46.47;99928.70;1721762;81;20998;-74
2021/05/06 10:05:08;;;;;;;2.92;1.05;;;;;;;13.24;46.45;99929.16;1729698;81;21515;-74
2021/05/06 10:07:53;;;;;;;5.35;1.65;;;;;;;13.30;46.35;99928.92;1722661;81;20994;-74
2021/05/06 10:10:23;;;;;;;4.40;1.50;;;;;;;13.43;46.35;99931.45;1726156;81;20990;-74
2021/05/06 10:12:50;;;;;;;2.80;1.20;;;;;;;13.43;45.99;99939.23;1729170;81;21038;-74
2021/05/06 10:15:18;;;;;;;6.00;1.92;;;;;;;13.30;45.92;99939.76;1721988;81;21112;-74
2021/05/06 10:17:46;;;;;;;3.02;1.30;;;;;;;13.18;45.90;99937.17;1722991;81;21144;-74
2021/05/06 10:20:31;;;;;;;4.67;0.90;;;;;;;13.14;45.96;99941.59;1722999;81;21144;-74
2021/05/06 10:23:05;;;;;;;4.40;1.07;;;;;;;13.16;46.01;99945.02;1738507;81;21114;-74
2021/05/06 10:25:32;;;;;;;2.62;1.30;;;;;;;13.14;45.85;99939.00;1726817;81;21118;-74
2021/05/06 10:27:58;;;;;;;1.85;1.12;;;;;;;13.03;45.64;99940.30;1733764;81;20966;-74
2021/05/06 10:30:34;;;;;;;2.67;1.05;;;;;;;12.89;45.60;99939.08;1724801;81;20972;-74
2021/05/06 10:33:00;;;;;;;3.15;1.37;;;;;;;12.82;45.77;99944.09;1735162;81;21097;-74
2021/05/06 10:35:27;;;;;;;3.75;1.55;;;;;;;12.95;45.86;99956.18;1724860;81;21492;-73
2021/05/06 10:38:12;;;;;;;2.10;1.17;;;;;;;13.02;45.73;99945.94;1720767;81;21144;-74
2021/05/06 10:40:58;;;;;;;3.15;1.10;;;;;;;13.06;45.65;99945.38;1723762;81;21463;-74
2021/05/06 10:43:56;;;;;;;3.77;1.37;;;;;;;13.13;45.68;99936.46;1714914;81;21477;-73
2021/05/06 10:47:02;;;;;;;3.00;1.15;;;;;;;13.23;45.61;99932.66;1724769;81;21034;-74
2021/05/06 10:49:52;;;;;;;2.15;1.25;;;;;;;13.39;45.56;99935.52;1724207;81;21451;-74
2021/05/06 10:52:39;;;;;;;2.92;1.00;;;;;;;13.46;45.48;99935.67;1720684;81;21015;-74
2021/05/06 10:55:53;;;;;;;4.62;1.82;;;;;;;13.40;45.31;99938.05;1715254;81;21536;-74
2021/05/06 10:58:39;;;;;;;2.50;1.10;;;;;;;13.39;45.28;99940.71;1721560;81;20997;-74
2021/05/06 11:01:24;;;;;;;3.05;1.52;;;;;;;13.28;45.26;99947.61;1719832;81;21133;-74
2021/05/06 11:04:10;;;;;;;3.75;1.60;;;;;;;13.26;45.09;99942.92;1694167;82;21151;-74
2021/05/06 11:07:19;;;;;;;2.60;1.43;;;;;;;13.33;45.38;99943.54;1734784;81;21121;-74
2021/05/06 11:09:49;;;;;;;2.90;1.40;;;;;;;13.54;45.38;99944.83;1723148;81;20976;-74
2021/05/06 11:12:26;;;;;;;2.12;1.00;;;;;;;13.74;45.31;99941.91;1735155;81;21145;-74
2021/05/06 11:15:06;;;;;;;6.10;1.62;;;;;;;13.82;45.18;99930.30;1724067;81;21126;-74
2021/05/06 11:17:39;;;;;;;2.40;1.15;;;;;;;13.87;45.12;99930.97;1730758;81;21145;-74
2021/05/06 11:20:16;;;;;;;2.70;1.30;;;;;;;13.80;44.89;99938.62;1608090;81;9999801;-74
2021/05/06 11:22:50;;;;;;;3.47;1.50;;;;;;;13.72;44.83;99936.78;1707826;82;22185;-74
2021/05/06 11:25:42;;;;;;;2.65;1.37;;;;;;;13.55;44.80;99948.28;1735830;81;21096;-74
2021/05/06 11:28:23;;;;;;;3.52;1.40;;;;;;;13.42;44.82;99938.00;1726427;81;21106;-75
2021/05/06 11:30:52;;;;;;;2.15;0.95;;;;;;;13.32;44.88;99936.20;1721284;81;21131;-76
2021/05/06 11:33:25;;;;;;;3.35;0.93;;;;;;;13.31;44.94;99929.77;1724333;81;21407;-74
2021/05/06 11:36:18;;;;;;;3.60;1.20;;;;;;;13.45;45.13;99932.23;1728959;81;21109;-74
2021/05/06 11:38:51;;;;;;;3.10;1.30;;;;;;;13.58;44.98;99926.08;1727788;81;21100;-74
2021/05/06 11:41:30;;;;;;;2.52;1.10;;;;;;;13.65;45.00;99924.09;1724634;82;21000;-74
2021/05/06 11:43:59;;;;;;;1.47;1.10;;;;;;;13.57;44.82;99918.73;1716602;81;20994;-74
2021/05/06 11:46:31;;;;;;;5.12;1.07;;;;;;;13.50;44.83;99917.77;1713494;81;21147;-74
2021/05/06 11:49:04;;;;;;;5.00;1.30;;;;;;;13.49;44.88;99924.72;1728881;81;21123;-74
2021/05/06 11:51:34;;;;;;;3.62;1.47;;;;;;;13.50;44.86;99922.52;1725276;81;21146;-74
2021/05/06 11:54:09;;;;;;;2.22;1.10;;;;;;;13.55;44.78;99915.81;1710809;82;21110;-74
2021/05/06 11:56:39;;;;;;;2.08;1.40;;;;;;;13.56;44.66;99917.50;1682974;83;21124;-74
2021/05/06 11:59:08;;;;;;;1.98;1.00;;;;;;;13.60;44.72;99917.77;1701696;83;21135;-74
2021/05/06 12:01:34;;;;;;;3.02;1.50;;;;;;;13.65;44.68;99907.20;1711319;83;21150;-74
2021/05/06 12:04:01;;;;;;;2.58;1.12;;;;;;;13.68;44.61;99920.91;1703656;83;21163;-74
2021/05/06 12:06:36;;;;;;;2.02;1.15;;;;;;;13.65;44.58;99914.54;1689709;83;22208;-74
2021/05/06 12:09:08;;;;;;;3.35;1.47;;;;;;;13.69;44.64;99917.86;1700408;83;21161;-74
2021/05/06 12:11:42;;;;;;;3.75;1.47;;;;;;;13.71;44.60;99916.90;1672723;84;21141;-74
2021/05/06 12:14:10;;;;;;;2.27;1.25;;;;;;;13.66;44.52;99904.54;1705348;83;21129;-74
2021/05/06 12:16:38;;;;;;;1.95;1.15;;;;;;;13.56;44.53;99915.75;1704611;83;21535;-74
2021/05/06 12:19:09;;;;;;;2.55;1.12;;;;;;;13.50;44.54;99914.72;1709580;82;321662;-74
2021/05/06 12:21:43;;;;;;;3.33;0.98;;;;;;;13.57;44.81;99901.86;1711872;81;21184;-74
2021/05/06 12:24:15;;;;;;;2.37;1.00;;;;;;;13.73;44.80;99891.70;1720082;81;397046;-74
2021/05/06 12:26:42;;;;;;;3.62;1.05;;;;;;;13.87;44.76;99893.73;1675872;83;21157;-74
2021/05/06 12:29:21;;;;;;;3.72;1.15;;;;;;;13.98;44.77;99897.20;1676313;84;21115;-74
2021/05/06 12:31:49;;;;;;;3.20;1.10;;;;;;;13.94;44.65;99891.28;1681808;83;21122;-74
2021/05/06 12:34:21;;;;;;;1.35;0.93;;;;;;;13.96;44.63;99889.46;1689052;83;21142;-73
2021/05/06 12:36:57;;;;;;;2.22;1.10;;;;;;;13.98;44.57;99883.75;1683730;83;20989;-73
2021/05/06 12:39:24;;;;;;;2.43;1.20;;;;;;;13.94;44.51;99876.14;1687741;84;21119;-74
2021/05/06 12:42:00;;;;;;;2.85;0.95;;;;;;;13.74;44.38;99892.09;1687496;84;21134;-74
2021/05/06 12:44:43;;;;;;;1.87;0.80;;;;;;;13.69;44.56;99874.55;1685705;83;21131;-74
2021/05/06 12:47:26;;;;;;;2.05;1.30;;;;;;;13.67;44.45;99888.05;1683652;83;21155;-74
2021/05/06 12:50:21;;;;;;;2.50;1.30;;;;;;;13.69;44.52;99886.23;1696323;83;21148;-74
2021/05/06 12:53:08;;;;;;;2.17;1.10;;;;;;;13.75;44.57;99884.69;1670083;84;21122;-74
2021/05/06 12:55:42;;;;;;;1.42;0.85;;;;;;;13.79;44.40;99884.11;1686834;83;21135;-74
2021/05/06 12:58:19;;;;;;;3.25;1.07;;;;;;;13.85;44.42;99883.41;1704901;82;21835;-75
2021/05/06 13:00:55;;;;;;;;;;;;;;;13.81;44.28;99873.20;1719777;82;21136;-75
2021/05/06 13:03:42;;;;;;;1.25;0.90;;;;;;;13.81;44.27;99883.59;1708248;82;22715;-75
2021/05/06 13:06:15;;;;;;;1.75;0.95;;;;;;;13.82;44.40;99883.53;1693888;83;21132;-75
2021/05/06 13:08:44;;;;;;;1.20;0.93;;;;;;;13.76;44.26;99874.69;1714964;82;21128;-75
2021/05/06 13:11:16;;;;;;;2.50;1.60;;;;;;;13.70;44.25;99872.79;1698984;83;21135;-75
2021/05/06 13:13:51;;;;;;;2.33;1.00;;;;;;;13.73;44.45;99876.11;1680161;83;21164;-75
2021/05/06 13:16:48;;;;;;;3.70;1.02;;;;;;;13.76;44.40;99873.38;1706085;82;21136;-75
2021/05/06 13:19:15;;;;;;;2.10;0.80;;;;;;;13.79;44.43;99873.26;1703618;82;21132;-75
2021/05/06 13:21:54;;;;;;;1.95;1.22;;;;;;;13.82;44.37;99869.23;1699988;83;21033;-75
2021/05/06 13:24:20;;;;;;;1.27;0.90;;;;;;;13.82;44.27;99864.04;1719346;82;21159;-75
2021/05/06 13:26:47;;;;;;;1.50;0.80;;;;;;;13.68;44.24;99875.45;1705857;83;21133;-75
2021/05/06 13:29:16;;;;;;;;;;;;;;;13.58;44.24;99872.83;1727577;82;21124;-75
2021/05/06 13:31:45;;;;;;;2.52;1.20;;;;;;;13.40;43.96;99873.59;1686144;84;20266;-75
2021/05/06 13:34:27;;;;;;;1.67;1.12;;;;;;;13.25;44.25;99873.27;1704617;82;20993;-74
2021/05/06 13:37:04;;;;;;;1.42;0.80;;;;;;;13.27;44.38;99881.45;1712936;82;21155;-74
2021/05/06 13:39:32;;;;;;;1.42;0.95;;;;;;;13.28;44.35;99879.25;1713384;82;21149;-75
2021/05/06 13:41:59;;;;;;;1.55;1.17;;;;;;;13.28;44.30;99884.45;1712259;82;21137;-74
2021/05/06 13:44:29;;;;;;;2.02;1.30;;;;;;;13.24;44.31;99889.76;1711317;82;21154;-74
2021/05/06 13:46:57;;;;;;;3.30;1.05;;;;;;;13.26;44.38;99892.30;1706391;82;21157;-74
2021/05/06 13:49:31;;;;;;;3.25;0.80;;;;;;;13.23;44.34;99899.75;1711996;82;21172;-73
2021/05/06 13:52:00;;;;;;;1.75;1.02;;;;;;;13.15;44.31;99900.91;1685247;83;21148;-73
2021/05/06 13:54:27;;;;;;;1.52;1.05;;;;;;;13.10;44.37;99898.94;1707002;82;21154;-73
2021/05/06 13:56:57;;;;;;;4.78;1.00;;;;;;;13.11;44.46;99893.69;1698581;83;21022;-75
2021/05/06 13:59:24;;;;;;;1.75;1.30;;;;;;;13.18;44.57;99900.83;1706522;82;21167;-74
2021/05/06 14:01:53;;;;;;;2.55;2.10;;;;;;;13.17;44.33;99895.23;1695073;83;21710;-73
2021/05/06 14:04:20;;;;;;;1.40;0.85;;;;;;;13.10;44.34;99890.70;1699951;83;21034;-73
2021/05/06 14:06:48;;;;;;;1.55;0.62;;;;;;;13.10;44.48;99879.02;1709406;82;21149;-73
2021/05/06 14:09:18;;;;;;;2.55;1.02;;;;;;;13.14;44.44;99884.48;1708128;82;21174;-73
2021/05/06 14:11:47;;;;;;;3.42;1.00;;;;;;;13.17;44.63;99880.52;1708910;83;21144;-73
2021/05/06 14:14:16;;;;;;;1.22;0.90;;;;;;;13.19;44.59;99881.75;1703420;83;21190;-73
2021/05/06 14:16:44;;;;;;;1.30;0.95;;;;;;;13.15;44.60;99887.93;1701666;82;21165;-73
2021/05/06 14:19:13;;;;;;;1.45;0.90;;;;;;;13.12;44.68;99879.80;1701499;83;20975;-74
2021/05/06 14:21:41;;;;;;;1.00;0.72;;;;;;;13.09;44.65;99873.44;1689050;83;21109;-73
2021/05/06 14:24:11;;;;;;;1.65;0.98;;;;;;;13.07;44.82;99878.29;1696418;83;21461;-74
2021/05/06 14:26:37;;;;;;;1.20;1.10;;;;;;;13.09;44.91;99871.30;1667847;84;21175;-74
2021/05/06 14:29:04;;;;;;;1.07;0.90;;;;;;;13.14;44.87;99874.56;1695289;84;21152;-74
2021/05/06 14:31:31;;;;;;;1.72;1.10;;;;;;;13.10;44.92;99868.64;1686432;83;21013;-74
2021/05/06 14:33:57;;;;;;;3.50;1.40;;;;;;;12.99;44.77;99864.34;1677817;83;21122;-74
2021/05/06 14:36:25;;;;;;;2.60;0.98;;;;;;;12.82;44.88;99868.02;1691365;83;21078;-74
2021/05/06 14:38:51;;;;;;;1.70;1.00;;;;;;;12.76;44.94;99865.19;1691663;83;21130;-74
2021/05/06 14:41:18;;;;;;;2.12;1.20;;;;;;;12.72;45.11;99860.17;1678951;83;21008;-74
2021/05/06 14:43:44;;;;;;;1.35;1.00;;;;;;;12.73;45.20;99861.41;1687275;83;21000;-74
2021/05/06 14:46:11;;;;;;;3.25;1.25;;;;;;;12.75;45.12;99861.36;1687598;83;21146;-73
2021/05/06 14:48:37;;;;;;;2.17;1.30;;;;;;;12.71;45.15;99859.32;1685866;83;21122;-74
2021/05/06 14:51:04;;;;;;;1.30;1.15;;;;;;;12.69;45.25;99859.83;1689452;83;21146;-74
2021/05/06 14:53:31;;;;;;;2.60;1.20;;;;;;;12.71;45.30;99864.52;1695754;83;21158;-74
2021/05/06 14:55:58;;;;;;;1.20;1.10;;;;;;;12.73;45.17;99856.67;1693212;83;21005;-74
2021/05/06 14:58:29;;;;;;;;;;;;;;;12.68;45.08;99863.78;1687108;84;21163;-73
2021/05/06 15:00:52;;;;;;;1.52;1.05;;;;;;;12.61;45.25;99865.75;1687814;83;20318;-73
2021/05/06 15:03:19;;;;;;;1.52;0.98;;;;;;;12.63;45.28;99878.66;1736233;81;21106;-74
2021/05/06 15:05:47;;;;;;;1.30;0.72;;;;;;;12.63;45.28;99867.83;1738784;81;21127;-74
2021/05/06 15:08:13;;;;;;;2.47;0.90;;;;;;;12.63;45.23;99873.47;1716785;81;20997;-74
2021/05/06 15:10:42;;;;;;;2.17;1.10;;;;;;;12.67;45.28;99871.16;1720601;82;21009;-74
2021/05/06 15:13:11;;;;;;;1.42;1.12;;;;;;;12.70;45.22;99868.45;1726035;81;21134;-74
2021/05/06 15:15:37;;;;;;;5.00;1.30;;;;;;;12.61;45.16;99865.75;1717077;81;21143;-74